createdAt,value
2022-08-19T00:00:13.115Z,17.80
2022-08-19T00:02:50.187Z,16.83
2022-08-19T00:05:20.217Z,15.60
2022-08-19T00:07:49.707Z,15.80
2022-08-19T00:10:20.640Z,17.00
2022-08-19T00:12:49.652Z,16.63
2022-08-19T00:15:21.742Z,17.70
2022-08-19T00:17:50.444Z,17.97
2022-08-19T00:20:24.453Z,18.30
2022-08-19T00:22:53.944Z,17.37
2022-08-19T00:25:30.064Z,16.67
2022-08-19T00:28:02.895Z,17.50
2022-08-19T00:30:32.834Z,17.67
2022-08-19T00:33:01.684Z,16.80
2022-08-19T00:35:30.442Z,17.90
2022-08-19T00:37:59.855Z,16.80
2022-08-19T00:40:28.552Z,16.33
2022-08-19T00:42:57.344Z,16.47
2022-08-19T00:45:31.769Z,16.60
2022-08-19T00:48:05.388Z,20.40
2022-08-19T00:50:52.346Z,16.93
2022-08-19T00:53:24.167Z,17.63
2022-08-19T00:55:55.590Z,20.87
2022-08-19T00:58:31.160Z,18.90
2022-08-19T01:00:59.691Z,19.83
2022-08-19T01:03:57.053Z,18.63
2022-08-19T01:06:20.805Z,16.73
2022-08-19T01:08:50.207Z,17.80
2022-08-19T01:11:19.640Z,20.77
2022-08-19T01:13:49.907Z,18.23
2022-08-19T01:16:22.962Z,18.70
2022-08-19T01:18:53.418Z,18.17
2022-08-19T01:21:28.779Z,17.77
2022-08-19T01:23:59.125Z,19.60
2022-08-19T01:26:29.091Z,19.93
2022-08-19T01:29:02.250Z,22.20
2022-08-19T01:31:38.104Z,21.27
2022-08-19T01:34:06.979Z,19.30
2022-08-19T01:36:39.663Z,21.80
2022-08-19T01:39:17.862Z,19.60
2022-08-19T01:41:46.171Z,21.77
2022-08-19T01:44:18.528Z,28.83
2022-08-19T01:46:50.061Z,23.47
2022-08-19T01:49:21.092Z,20.77
2022-08-19T01:51:50.754Z,16.97
2022-08-19T01:54:22.855Z,19.73
2022-08-19T01:57:04.179Z,19.73
2022-08-19T01:59:34.478Z,18.37
2022-08-19T02:02:02.992Z,19.80
2022-08-19T02:04:31.389Z,19.60
2022-08-19T02:07:00.231Z,21.20
2022-08-19T02:09:30.221Z,18.10
2022-08-19T02:11:58.861Z,19.80
2022-08-19T02:14:27.506Z,19.87
2022-08-19T02:16:56.633Z,19.83
2022-08-19T02:19:25.143Z,24.90
2022-08-19T02:21:54.170Z,20.57
2022-08-19T02:24:23.030Z,21.97
2022-08-19T02:26:53.411Z,21.67
2022-08-19T02:29:22.822Z,20.87
2022-08-19T02:31:51.360Z,19.90
2022-08-19T02:34:19.861Z,16.93
2022-08-19T02:36:51.765Z,18.83
2022-08-19T02:39:20.164Z,25.43
2022-08-19T02:41:50.180Z,24.67
2022-08-19T02:44:29.936Z,21.93
2022-08-19T02:46:59.982Z,21.73
2022-08-19T02:49:28.737Z,22.50
2022-08-19T02:51:57.227Z,22.13
2022-08-19T02:54:25.769Z,22.03
2022-08-19T02:56:54.585Z,21.67
2022-08-19T02:59:25.786Z,31.70
2022-08-19T03:01:54.437Z,26.70
2022-08-19T03:04:24.110Z,27.37
2022-08-19T03:06:53.424Z,26.80
2022-08-19T03:09:22.629Z,29.67
2022-08-19T03:11:52.645Z,29.20
2022-08-19T03:14:21.461Z,29.97
2022-08-19T03:16:53.397Z,35.13
2022-08-19T03:19:23.467Z,30.77
2022-08-19T03:21:52.978Z,33.17
2022-08-19T03:24:22.507Z,34.70
2022-08-19T03:26:53.558Z,38.70
2022-08-19T03:29:30.370Z,36.73
2022-08-19T03:32:04.813Z,35.57
2022-08-19T03:34:36.662Z,34.57
2022-08-19T03:37:09.471Z,35.47
2022-08-19T03:39:39.273Z,33.33
2022-08-19T03:42:32.974Z,36.47
2022-08-19T03:44:56.415Z,35.77
2022-08-19T03:47:26.695Z,37.43
2022-08-19T03:49:55.862Z,37.17
2022-08-19T03:52:27.177Z,40.37
2022-08-19T03:54:55.566Z,39.37
2022-08-19T03:57:32.125Z,38.40
2022-08-19T04:00:04.139Z,52.37
2022-08-19T04:02:58.426Z,57.40
2022-08-19T04:05:30.633Z,54.53
2022-08-19T04:08:00.437Z,52.57
2022-08-19T04:10:29.787Z,64.53
2022-08-19T04:12:58.519Z,59.93
2022-08-19T04:15:27.357Z,57.37
2022-08-19T04:17:57.350Z,61.53
2022-08-19T04:20:25.873Z,60.83
2022-08-19T04:22:54.754Z,60.27
2022-08-19T04:25:23.200Z,59.83
2022-08-19T04:27:51.708Z,59.90
2022-08-19T04:30:22.226Z,57.40
2022-08-19T04:32:51.868Z,60.90
2022-08-19T04:35:24.826Z,59.63
2022-08-19T04:37:53.716Z,59.57
2022-08-19T04:40:40.111Z,58.47
2022-08-19T04:43:09.662Z,59.67
2022-08-19T04:45:43.553Z,61.87
2022-08-19T04:48:26.156Z,61.93
2022-08-19T04:50:59.892Z,58.90
2022-08-19T04:53:29.803Z,60.87
2022-08-19T04:56:09.230Z,57.50
2022-08-19T04:58:39.780Z,56.23
2022-08-19T05:01:10.230Z,56.17
2022-08-19T05:03:39.501Z,57.87
2022-08-19T05:06:13.679Z,55.17
2022-08-19T05:08:44.552Z,56.20
2022-08-19T05:11:15.242Z,56.70
2022-08-19T05:13:45.015Z,54.80
2022-08-19T05:16:15.508Z,57.43
2022-08-19T05:19:02.032Z,54.83
2022-08-19T05:21:50.334Z,58.10
2022-08-19T05:24:20.085Z,55.43
2022-08-19T05:26:51.226Z,57.57
2022-08-19T05:29:22.458Z,56.43
2022-08-19T05:31:52.565Z,59.90
2022-08-19T05:34:23.805Z,57.43
2022-08-19T05:36:58.041Z,57.03
2022-08-19T05:39:29.554Z,57.93
2022-08-19T05:42:00.495Z,58.60
2022-08-19T05:44:32.750Z,61.23
2022-08-19T05:47:03.196Z,60.90
2022-08-19T05:49:34.635Z,59.87
2022-08-19T05:52:06.613Z,60.20
2022-08-19T05:54:36.758Z,59.63
2022-08-19T05:57:05.614Z,61.37
2022-08-19T05:59:34.857Z,61.43
2022-08-19T06:02:04.967Z,60.77
2022-08-19T06:04:33.558Z,66.93
2022-08-19T06:07:12.787Z,64.60
2022-08-19T06:09:43.679Z,69.40
2022-08-19T06:12:32.825Z,67.53
2022-08-19T06:15:02.363Z,68.67
2022-08-19T06:17:31.978Z,68.17
2022-08-19T06:20:00.892Z,71.03
2022-08-19T06:22:32.876Z,69.00
2022-08-19T06:25:03.114Z,71.53
2022-08-19T06:27:33.805Z,70.40
2022-08-19T06:30:03.240Z,72.47
2022-08-19T06:32:32.789Z,73.13
2022-08-19T06:35:01.399Z,72.37
2022-08-19T06:37:29.925Z,72.57
2022-08-19T06:39:58.647Z,69.60
2022-08-19T06:42:28.567Z,71.87
2022-08-19T06:44:57.124Z,70.83
2022-08-19T06:47:28.922Z,70.53
2022-08-19T06:50:02.772Z,71.27
2022-08-19T06:52:34.059Z,71.00
2022-08-19T06:55:05.966Z,70.50
2022-08-19T06:57:36.758Z,66.13
2022-08-19T07:00:10.926Z,65.07
2022-08-19T07:02:55.849Z,66.83
2022-08-19T07:05:27.899Z,63.33
2022-08-19T07:07:59.717Z,61.07
2022-08-19T07:10:34.128Z,58.47
2022-08-19T07:13:04.867Z,58.37
2022-08-19T07:15:33.650Z,58.60
2022-08-19T07:18:04.518Z,57.80
2022-08-19T07:20:33.888Z,54.73
2022-08-19T07:23:03.236Z,55.87
2022-08-19T07:25:35.934Z,56.30
2022-08-19T07:28:07.491Z,56.07
2022-08-19T07:30:49.598Z,54.43
2022-08-19T07:33:21.765Z,55.10
2022-08-19T07:35:50.921Z,55.93
2022-08-19T07:38:19.403Z,56.37
2022-08-19T07:40:48.100Z,55.33
2022-08-19T07:43:21.583Z,56.73
2022-08-19T07:45:52.012Z,56.00
2022-08-19T07:48:20.719Z,54.10
2022-08-19T07:50:49.630Z,58.07
2022-08-19T07:53:18.250Z,55.33
2022-08-19T07:55:46.973Z,54.47
2022-08-19T07:58:19.382Z,53.87
2022-08-19T08:00:50.300Z,54.40
2022-08-19T08:03:22.118Z,50.97
2022-08-19T08:06:08.404Z,52.40
2022-08-19T08:08:55.027Z,51.77
2022-08-19T08:11:24.003Z,53.07
2022-08-19T08:14:01.326Z,51.57
2022-08-19T08:16:39.821Z,54.67
2022-08-19T08:19:22.969Z,51.90
2022-08-19T08:21:57.388Z,51.93
2022-08-19T08:24:28.350Z,49.00
2022-08-19T08:26:58.665Z,48.43
2022-08-19T08:29:34.871Z,50.47
2022-08-19T08:32:14.184Z,47.90
2022-08-19T08:34:44.011Z,44.27
2022-08-19T08:37:12.589Z,41.83
2022-08-19T08:39:44.970Z,42.20
2022-08-19T08:42:22.580Z,41.53
2022-08-19T08:47:38.180Z,42.20
2022-08-19T08:50:16.692Z,38.90
2022-08-19T08:52:48.351Z,38.33
2022-08-19T08:55:20.568Z,37.90
2022-08-19T08:57:55.972Z,37.27
2022-08-19T09:00:28.727Z,37.77
2022-08-19T09:02:59.558Z,34.50
2022-08-19T09:05:51.846Z,34.10
2022-08-19T09:08:30.509Z,31.67
2022-08-19T09:10:59.946Z,28.30
2022-08-19T09:13:37.535Z,28.97
2022-08-19T09:16:11.823Z,29.70
2022-08-19T09:18:43.663Z,28.10
2022-08-19T09:21:12.488Z,27.80
2022-08-19T09:23:41.281Z,27.13
2022-08-19T09:26:11.288Z,24.57
2022-08-19T09:28:43.450Z,24.63
2022-08-19T09:31:15.406Z,26.90
2022-08-19T09:33:44.732Z,25.20
2022-08-19T09:36:21.782Z,23.73
2022-08-19T09:39:03.284Z,25.70
2022-08-19T09:41:32.173Z,25.40
2022-08-19T09:44:02.784Z,24.97
2022-08-19T09:46:32.959Z,24.67
2022-08-19T09:49:06.352Z,24.40
2022-08-19T09:51:36.017Z,23.17
2022-08-19T09:54:06.936Z,23.10
2022-08-19T09:56:39.845Z,22.73
2022-08-19T09:59:14.000Z,22.80
2022-08-19T10:01:44.556Z,20.03
2022-08-19T10:04:20.563Z,20.13
2022-08-19T10:06:53.922Z,20.67
2022-08-19T10:09:26.245Z,18.97
2022-08-19T10:12:04.216Z,16.23
2022-08-19T10:14:35.022Z,17.27
2022-08-19T10:17:19.238Z,16.97
2022-08-19T10:19:54.990Z,16.10
2022-08-19T10:22:26.460Z,16.20
2022-08-19T10:24:55.503Z,15.97
2022-08-19T10:27:24.074Z,15.43
2022-08-19T10:29:55.549Z,15.97
2022-08-19T10:32:34.123Z,15.07
2022-08-19T10:35:08.952Z,13.83
2022-08-19T10:37:53.087Z,13.73
2022-08-19T10:40:26.130Z,14.67
2022-08-19T10:42:54.887Z,14.93
2022-08-19T10:45:26.975Z,12.33
2022-08-19T10:47:58.403Z,13.00
2022-08-19T10:50:44.380Z,11.20
2022-08-19T10:53:12.889Z,12.37
2022-08-19T10:55:59.120Z,11.57
2022-08-19T10:58:27.674Z,12.37
2022-08-19T11:00:58.597Z,9.67
2022-08-19T11:03:30.914Z,7.83
2022-08-19T11:06:01.319Z,9.30
2022-08-19T11:08:31.872Z,12.00
2022-08-19T11:11:04.182Z,11.80
2022-08-19T11:13:38.504Z,8.67
2022-08-19T11:16:09.794Z,7.67
2022-08-19T11:18:42.018Z,6.27
2022-08-19T11:21:13.649Z,7.80
2022-08-19T11:23:42.772Z,6.90
2022-08-19T11:26:11.607Z,6.80
2022-08-19T11:28:40.640Z,7.40
2022-08-19T11:31:12.822Z,8.63
2022-08-19T11:33:47.794Z,8.43
2022-08-19T11:36:17.095Z,8.00
2022-08-19T11:38:46.125Z,9.27
2022-08-19T11:41:14.567Z,8.40
2022-08-19T11:43:43.443Z,7.17
2022-08-19T11:46:15.135Z,7.33
2022-08-19T11:48:45.990Z,7.30
2022-08-19T11:51:16.959Z,7.73
2022-08-19T11:53:45.649Z,6.57
2022-08-19T11:56:14.766Z,7.73
2022-08-19T11:58:43.318Z,6.93
2022-08-19T12:01:14.692Z,6.55
2022-08-19T12:03:45.210Z,6.22
2022-08-19T12:06:16.128Z,5.60
2022-08-19T12:08:45.799Z,5.82
2022-08-19T12:11:16.453Z,6.90
2022-08-19T12:13:47.273Z,8.35
2022-08-19T12:16:18.630Z,7.35
2022-08-19T12:18:48.967Z,8.27
2022-08-19T12:21:19.014Z,6.18
2022-08-19T12:23:47.604Z,6.72
2022-08-19T12:26:16.909Z,7.43
2022-08-19T12:28:45.920Z,6.65
2022-08-19T12:31:14.532Z,8.95
2022-08-19T12:33:43.853Z,8.20
2022-08-19T12:36:16.625Z,7.13
2022-08-19T12:38:45.650Z,8.50
2022-08-19T12:41:19.337Z,8.20
2022-08-19T12:43:50.278Z,7.97
2022-08-19T12:46:19.831Z,6.45
2022-08-19T12:48:55.293Z,7.78
2022-08-19T12:51:26.400Z,7.22
2022-08-19T12:53:55.259Z,6.05
2022-08-19T12:56:24.050Z,5.78
2022-08-19T12:58:53.293Z,5.90
2022-08-19T13:01:23.523Z,6.15
2022-08-19T13:03:54.394Z,6.05
2022-08-19T13:06:22.806Z,5.82
2022-08-19T13:08:57.716Z,4.68
2022-08-19T13:11:33.293Z,4.47
2022-08-19T13:14:02.990Z,4.22
2022-08-19T13:16:32.521Z,5.28
2022-08-19T13:19:05.925Z,5.22
2022-08-19T13:21:34.508Z,6.07
2022-08-19T13:24:05.063Z,4.90
2022-08-19T13:26:33.452Z,5.07
2022-08-19T13:29:19.822Z,5.45
2022-08-19T13:32:06.154Z,5.38
2022-08-19T13:34:38.034Z,5.45
2022-08-19T13:37:07.123Z,6.07
2022-08-19T13:39:38.001Z,7.53
2022-08-19T13:42:07.233Z,7.63
2022-08-19T13:44:35.826Z,7.20
2022-08-19T13:47:09.409Z,7.95
2022-08-19T13:49:38.515Z,8.65
2022-08-19T13:52:07.665Z,8.15
2022-08-19T13:54:37.867Z,9.95
2022-08-19T13:57:07.587Z,10.02
2022-08-19T13:59:36.094Z,10.07
2022-08-19T14:02:06.491Z,9.73
2022-08-19T14:04:35.111Z,10.32
2022-08-19T14:07:03.591Z,12.77
2022-08-19T14:09:32.209Z,12.35
2022-08-19T14:12:02.347Z,13.45
2022-08-19T14:14:31.172Z,10.80
2022-08-19T14:16:59.808Z,11.10
2022-08-19T14:19:30.094Z,10.88
2022-08-19T14:21:59.356Z,10.18
2022-08-19T14:24:27.987Z,11.07
2022-08-19T14:26:56.320Z,11.77
2022-08-19T14:29:26.427Z,12.13
2022-08-19T14:31:54.779Z,11.18
2022-08-19T14:34:23.331Z,11.38
2022-08-19T14:36:51.732Z,10.13
2022-08-19T14:39:20.355Z,10.70
2022-08-19T14:41:48.920Z,10.73
2022-08-19T14:44:17.422Z,13.02
2022-08-19T14:46:49.612Z,12.38
2022-08-19T14:49:19.473Z,11.65
2022-08-19T14:51:48.801Z,10.32
2022-08-19T14:54:17.119Z,10.70
2022-08-19T14:56:45.625Z,9.02
2022-08-19T14:59:14.146Z,10.70
2022-08-19T15:01:43.071Z,10.43
2022-08-19T15:04:14.782Z,9.85
2022-08-19T15:06:46.649Z,10.35
2022-08-19T15:09:15.312Z,9.40
2022-08-19T15:11:45.218Z,9.63
2022-08-19T15:14:16.339Z,9.20
2022-08-19T15:16:45.171Z,8.55
2022-08-19T15:19:16.621Z,10.02
2022-08-19T15:21:45.007Z,8.13
2022-08-19T15:24:13.970Z,8.10
2022-08-19T15:26:43.875Z,8.65
2022-08-19T15:29:15.649Z,9.63
2022-08-19T15:31:44.874Z,9.10
2022-08-19T15:34:15.046Z,8.18
2022-08-19T15:36:43.937Z,6.83
2022-08-19T15:39:12.822Z,6.53
2022-08-19T15:41:45.295Z,6.93
2022-08-19T15:44:18.652Z,6.50
2022-08-19T15:46:49.388Z,4.97
2022-08-19T15:49:20.424Z,5.70
2022-08-19T15:51:52.158Z,5.50
2022-08-19T15:54:23.048Z,4.97
2022-08-19T15:57:10.433Z,5.20
2022-08-19T16:00:00.102Z,5.18
2022-08-19T16:02:53.416Z,5.30
2022-08-19T16:05:45.709Z,5.40
2022-08-19T16:08:15.615Z,6.03
2022-08-19T16:10:44.149Z,5.50
2022-08-19T16:13:12.681Z,6.77
2022-08-19T16:15:42.161Z,7.10
2022-08-19T16:18:10.866Z,6.93
2022-08-19T16:20:41.068Z,6.30
2022-08-19T16:23:10.280Z,6.43
2022-08-19T16:25:39.484Z,6.23
2022-08-19T16:28:09.444Z,6.87
2022-08-19T16:30:40.244Z,5.30
2022-08-19T16:33:09.548Z,5.47
2022-08-19T16:35:39.100Z,7.27
2022-08-19T16:38:08.889Z,6.50
2022-08-19T16:40:37.787Z,6.07
2022-08-19T16:43:08.629Z,6.83
2022-08-19T16:45:37.348Z,7.03
2022-08-19T16:48:06.358Z,7.90
2022-08-19T16:50:48.814Z,8.20
2022-08-19T16:53:22.020Z,8.33
2022-08-19T16:55:53.414Z,8.53
2022-08-19T16:58:28.299Z,9.67
2022-08-19T17:01:03.412Z,6.10
2022-08-19T17:03:36.199Z,5.57
2022-08-19T17:06:18.397Z,4.67
2022-08-19T17:08:51.631Z,4.10
2022-08-19T17:11:21.291Z,3.47
2022-08-19T17:13:51.119Z,4.77
2022-08-19T17:16:25.113Z,5.27
2022-08-19T17:18:54.570Z,4.90
2022-08-19T17:21:28.197Z,4.77
2022-08-19T17:23:58.575Z,4.40
2022-08-19T17:26:28.196Z,4.20
2022-08-19T17:28:58.617Z,4.60
2022-08-19T17:31:30.216Z,5.20
2022-08-19T17:33:59.739Z,5.37
2022-08-19T17:36:29.847Z,5.50
2022-08-19T17:39:02.088Z,5.30
2022-08-19T17:41:33.844Z,5.83
2022-08-19T17:44:03.412Z,5.67
2022-08-19T17:46:32.409Z,6.03
2022-08-19T17:49:00.953Z,6.53
2022-08-19T17:51:42.668Z,6.27
2022-08-19T17:54:16.200Z,6.20
2022-08-19T17:56:46.332Z,5.80
2022-08-19T17:59:16.348Z,6.60
2022-08-19T18:01:53.916Z,5.83
2022-08-19T18:04:25.117Z,6.73
2022-08-19T18:06:55.791Z,6.77
2022-08-19T18:09:41.863Z,6.17
2022-08-19T18:12:12.420Z,6.07
2022-08-19T18:14:41.905Z,6.53
2022-08-19T18:17:14.006Z,6.63
2022-08-19T18:19:44.188Z,7.47
2022-08-19T18:22:22.720Z,8.60
2022-08-19T18:24:52.919Z,9.20
2022-08-19T18:27:21.574Z,9.37
2022-08-19T18:29:50.222Z,9.73
2022-08-19T18:32:23.795Z,11.47
2022-08-19T18:34:54.238Z,11.43
2022-08-19T18:37:22.937Z,12.57
2022-08-19T18:40:10.136Z,10.37
2022-08-19T18:43:01.688Z,11.37
2022-08-19T18:45:47.875Z,11.73
2022-08-19T18:48:34.551Z,12.80
2022-08-19T18:51:06.504Z,14.90
2022-08-19T18:53:38.125Z,12.53
2022-08-19T18:56:08.944Z,13.20
2022-08-19T18:58:38.919Z,15.23
2022-08-19T19:01:11.650Z,14.63
2022-08-19T19:03:45.423Z,14.37
2022-08-19T19:06:15.484Z,14.53
2022-08-19T19:08:45.355Z,15.30
2022-08-19T19:11:21.184Z,16.43
2022-08-19T19:13:50.001Z,16.70
2022-08-19T19:16:22.488Z,17.63
2022-08-19T19:18:53.701Z,17.70
2022-08-19T19:21:24.852Z,18.00
2022-08-19T19:23:54.354Z,18.13
2022-08-19T19:26:25.017Z,20.13
2022-08-19T19:28:55.072Z,25.03
2022-08-19T19:31:26.978Z,22.07
2022-08-19T19:33:57.659Z,23.70
2022-08-19T19:36:26.467Z,24.30
2022-08-19T19:38:55.094Z,25.03
2022-08-19T19:41:29.705Z,25.80
2022-08-19T19:44:30.323Z,23.87
2022-08-19T19:46:49.979Z,23.70
2022-08-19T19:49:18.734Z,24.67
2022-08-19T19:51:47.585Z,29.60
2022-08-19T19:54:19.555Z,29.23
2022-08-19T19:56:52.557Z,28.47
2022-08-19T19:59:21.571Z,27.07
2022-08-19T20:01:50.700Z,26.77
2022-08-19T20:04:23.689Z,26.73
2022-08-19T20:06:52.178Z,26.93
2022-08-19T20:09:21.269Z,24.43
2022-08-19T20:11:53.562Z,28.17
2022-08-19T20:14:25.642Z,26.80
2022-08-19T20:16:56.026Z,26.97
2022-08-19T20:19:27.333Z,24.93
2022-08-19T20:21:57.733Z,26.97
2022-08-19T20:24:28.886Z,26.27
2022-08-19T20:26:59.059Z,24.73
2022-08-19T20:29:39.339Z,26.90
2022-08-19T20:32:11.115Z,27.17
2022-08-19T20:34:40.508Z,26.60
2022-08-19T20:37:12.415Z,26.87
2022-08-19T20:39:41.687Z,25.17
2022-08-19T20:42:11.779Z,26.90
2022-08-19T20:44:40.437Z,25.73
2022-08-19T20:47:09.444Z,27.63
2022-08-19T20:49:38.181Z,25.23
2022-08-19T20:52:07.300Z,26.17
2022-08-19T20:54:36.224Z,25.00
2022-08-19T20:57:05.699Z,24.23
2022-08-19T20:59:37.314Z,24.57
2022-08-19T21:02:06.121Z,23.67
2022-08-19T21:04:34.953Z,23.47
2022-08-19T21:07:04.019Z,22.43
2022-08-19T21:09:32.741Z,21.83
2022-08-19T21:12:01.684Z,21.40
2022-08-19T21:14:31.211Z,20.73
2022-08-19T21:17:01.329Z,20.20
2022-08-19T21:19:30.062Z,20.20
2022-08-19T21:21:58.811Z,19.43
2022-08-19T21:24:31.667Z,18.63
2022-08-19T21:27:00.980Z,17.53
2022-08-19T21:29:32.156Z,17.13
2022-08-19T21:32:02.072Z,17.10
2022-08-19T21:34:30.817Z,17.30
2022-08-19T21:36:59.322Z,15.33
2022-08-19T21:39:28.216Z,16.27
2022-08-19T21:41:57.086Z,15.80
2022-08-19T21:44:25.588Z,14.43
2022-08-19T21:46:54.425Z,14.73
2022-08-19T21:49:24.280Z,14.30
2022-08-19T21:51:52.913Z,13.87
2022-08-19T21:54:21.611Z,13.90
2022-08-19T21:56:50.477Z,13.73
2022-08-19T21:59:19.165Z,14.60
2022-08-19T22:01:50.571Z,13.77
2022-08-19T22:04:24.246Z,13.03
2022-08-19T22:06:55.401Z,13.10
2022-08-19T22:09:23.979Z,13.27
2022-08-19T22:11:52.545Z,13.03
2022-08-19T22:14:21.130Z,12.90
2022-08-19T22:16:49.684Z,12.20
2022-08-19T22:19:18.310Z,11.63
2022-08-19T22:21:48.223Z,12.03
2022-08-19T22:24:16.752Z,12.33
2022-08-19T22:26:45.481Z,12.73
2022-08-19T22:29:15.643Z,12.20
2022-08-19T22:31:46.451Z,13.03
2022-08-19T22:34:23.319Z,11.63
2022-08-19T22:36:53.379Z,13.33
2022-08-19T22:39:22.179Z,14.27
2022-08-19T22:41:50.749Z,13.07
2022-08-19T22:44:20.663Z,13.97
2022-08-19T22:46:49.477Z,13.83
2022-08-19T22:49:18.624Z,14.27
2022-08-19T22:52:04.923Z,13.97
2022-08-19T22:54:35.018Z,15.90
2022-08-19T22:57:03.821Z,15.37
2022-08-19T22:59:32.912Z,15.07
2022-08-19T23:02:01.584Z,15.87
2022-08-19T23:04:30.276Z,15.90
2022-08-19T23:06:59.171Z,15.90
2022-08-19T23:09:31.484Z,16.83
2022-08-19T23:12:01.758Z,16.27
2022-08-19T23:14:30.488Z,17.30
2022-08-19T23:16:59.538Z,16.20
2022-08-19T23:19:28.278Z,16.90
2022-08-19T23:21:57.232Z,16.23
2022-08-19T23:24:26.433Z,15.87
2022-08-19T23:27:12.636Z,16.57
2022-08-19T23:30:00.291Z,17.33
2022-08-19T23:32:29.389Z,15.97
2022-08-19T23:34:58.348Z,17.70
2022-08-19T23:37:28.350Z,16.43
2022-08-19T23:39:57.358Z,15.90
2022-08-19T23:42:26.631Z,16.17
2022-08-19T23:45:02.119Z,16.13
2022-08-19T23:47:32.698Z,17.20
2022-08-19T23:50:05.679Z,16.80
2022-08-19T23:52:35.017Z,14.90
2022-08-19T23:55:03.882Z,15.00
2022-08-19T23:57:32.464Z,15.00
